Time,TemperatureF,DewpointF,PressureIn,WindDirection,WindDirectionDegrees,WindSpeedMPH,WindSpeedGustMPH,Humidity,HourlyPrecipIn,Conditions,Clouds,dailyrainin,SolarRadiationWatts/m^2,SoftwareType,DateUTC
2013-04-14 00:05:00,33.2,31.0,29.51,SE,132,0.0,-999.0,91,-99.99,,,0.00,0,weatherlink.com 1.10,2013-04-14 06:05:00,
2013-04-14 00:20:00,33.2,31.0,29.52,SE,132,5.0,-999.0,91,-99.99,,,0.00,0,weatherlink.com 1.10,2013-04-14 06:20:00,
2013-04-14 00:35:00,33.1,31.0,29.51,NNE,16,3.0,-999.0,92,-99.99,,,0.00,0,weatherlink.com 1.10,2013-04-14 06:35:00,
2013-04-14 00:50:00,32.7,30.0,29.53,NNE,15,2.0,-999.0,91,-99.99,,,0.00,0,weatherlink.com 1.10,2013-04-14 06:50:00,
2013-04-14 01:05:00,32.4,30.0,29.53,NNE,26,2.0,-999.0,91,-99.99,,,0.00,0,weatherlink.com 1.10,2013-04-14 07:05:00,
2013-04-14 01:20:00,32.5,31.0,29.54,NNE,26,2.0,-999.0,92,-99.99,,,0.00,0,weatherlink.com 1.10,2013-04-14 07:20:00,
2013-04-14 01:35:00,32.5,31.0,29.54,North,355,3.0,-999.0,92,-99.99,,,0.00,0,weatherlink.com 1.10,2013-04-14 07:35:00,
2013-04-14 01:50:00,32.4,30.0,29.55,North,5,3.0,-999.0,92,-99.99,,,0.00,0,weatherlink.com 1.10,2013-04-14 07:50:00,
2013-04-14 02:05:00,32.3,30.0,29.54,North,5,3.0,-999.0,92,-99.99,,,0.00,0,weatherlink.com 1.10,2013-04-14 08:05:00,
2013-04-14 02:20:00,32.3,30.0,29.53,North,5,2.0,-999.0,92,-99.99,,,0.00,0,weatherlink.com 1.10,2013-04-14 08:20:00,
2013-04-14 02:35:00,32.3,30.0,29.53,North,5,2.0,-999.0,92,-99.99,,,0.00,0,weatherlink.com 1.10,2013-04-14 08:35:00,
2013-04-14 02:50:00,32.5,31.0,29.53,North,5,3.0,-999.0,92,-99.99,,,0.00,0,weatherlink.com 1.10,2013-04-14 08:50:00,
2013-04-14 03:05:00,32.1,30.0,29.51,North,360,3.0,-999.0,92,-99.99,,,0.00,0,weatherlink.com 1.10,2013-04-14 09:05:00,
2013-04-14 03:20:00,32.1,30.0,29.52,North,360,2.0,-999.0,92,-99.99,,,0.00,0,weatherlink.com 1.10,2013-04-14 09:20:00,
2013-04-14 03:35:00,32.3,30.0,29.52,North,360,4.0,-999.0,92,-99.99,,,0.00,0,weatherlink.com 1.10,2013-04-14 09:35:00,
2013-04-14 03:51:00,31.9,30.0,29.52,NNE,22,6.0,-999.0,92,-99.99,,,0.00,0,weatherlink.com 1.10,2013-04-14 09:51:00,
2013-04-14 04:06:00,31.8,30.0,29.52,NNE,21,4.0,-999.0,92,-99.99,,,0.00,0,weatherlink.com 1.10,2013-04-14 10:06:00,
2013-04-14 04:21:00,31.7,30.0,29.52,NNE,17,2.0,-999.0,92,-99.99,,,0.00,0,weatherlink.com 1.10,2013-04-14 10:21:00,
2013-04-14 04:36:00,31.9,30.0,29.53,North,355,2.0,-999.0,92,-99.99,,,0.00,0,weatherlink.com 1.10,2013-04-14 10:36:00,
2013-04-14 04:51:00,31.9,30.0,29.52,North,355,2.0,-999.0,93,-99.99,,,0.00,0,weatherlink.com 1.10,2013-04-14 10:51:00,
2013-04-14 05:06:00,31.9,30.0,29.53,North,355,3.0,-999.0,93,-99.99,,,0.00,0,weatherlink.com 1.10,2013-04-14 11:06:00,
2013-04-14 05:21:00,31.9,30.0,29.53,North,355,1.0,-999.0,93,-99.99,,,0.00,0,weatherlink.com 1.10,2013-04-14 11:21:00,
2013-04-14 05:36:00,32.0,30.0,29.52,North,355,1.0,-999.0,93,-99.99,,,0.00,0,weatherlink.com 1.10,2013-04-14 11:36:00,
2013-04-14 05:51:00,31.7,30.0,29.53,North,355,0.0,-999.0,92,-99.99,,,0.00,0,weatherlink.com 1.10,2013-04-14 11:51:00,
2013-04-14 06:06:00,31.6,30.0,29.53,North,355,0.0,-999.0,92,-99.99,,,0.00,0,weatherlink.com 1.10,2013-04-14 12:06:00,
2013-04-14 06:21:00,31.5,30.0,29.53,North,355,2.0,-999.0,93,-99.99,,,0.00,0,weatherlink.com 1.10,2013-04-14 12:21:00,
2013-04-14 06:36:00,31.2,29.0,29.53,North,355,0.0,-999.0,93,-99.99,,,0.00,7,weatherlink.com 1.10,2013-04-14 12:36:00,
2013-04-14 06:51:00,31.0,29.0,29.54,North,355,0.0,-999.0,92,-99.99,,,0.00,35,weatherlink.com 1.10,2013-04-14 12:51:00,
2013-04-14 07:36:00,32.2,30.0,29.55,North,355,2.0,-999.0,93,-99.99,,,0.00,114,weatherlink.com 1.10,2013-04-14 13:36:00,
2013-04-14 07:51:00,32.2,30.0,29.54,North,355,9.0,-999.0,93,-99.99,,,0.00,95,weatherlink.com 1.10,2013-04-14 13:51:00,
2013-04-14 08:06:00,32.4,31.0,29.55,NNW,342,5.0,-999.0,93,-99.99,,,0.00,144,weatherlink.com 1.10,2013-04-14 14:06:00,
2013-04-14 08:21:00,32.8,31.0,29.54,North,355,4.0,-999.0,93,-99.99,,,0.00,134,weatherlink.com 1.10,2013-04-14 14:21:00,
2013-04-14 08:51:00,33.2,31.0,29.53,North,9,6.0,-999.0,93,-99.99,,,0.00,214,weatherlink.com 1.10,2013-04-14 14:51:00,
2013-04-14 09:06:00,33.5,32.0,29.53,North,10,5.0,-999.0,93,-99.99,,,0.00,578,weatherlink.com 1.10,2013-04-14 15:06:00,
2013-04-14 09:36:00,35.4,33.0,29.53,North,355,8.0,-999.0,92,-99.99,,,0.00,288,weatherlink.com 1.10,2013-04-14 15:36:00,
2013-04-14 09:51:00,36.9,34.0,29.53,NNE,16,13.0,-999.0,90,-99.99,,,0.00,497,weatherlink.com 1.10,2013-04-14 15:51:00,
2013-04-14 10:06:00,37.3,33.0,29.54,NNW,336,9.0,-999.0,83,-99.99,,,0.00,410,weatherlink.com 1.10,2013-04-14 16:06:00,
2013-04-14 10:21:00,37.9,32.0,29.54,NNW,340,13.0,-999.0,79,-99.99,,,0.00,548,weatherlink.com 1.10,2013-04-14 16:21:00,
2013-04-14 10:36:00,37.8,31.0,29.55,NNW,344,22.0,-999.0,76,-99.99,,,0.00,404,weatherlink.com 1.10,2013-04-14 16:36:00,
2013-04-14 10:52:00,38.8,31.0,29.55,NNW,332,7.0,-999.0,73,-99.99,,,0.00,522,weatherlink.com 1.10,2013-04-14 16:52:00,
2013-04-14 11:06:00,38.7,30.0,29.56,North,5,9.0,-999.0,71,-99.99,,,0.00,345,weatherlink.com 1.10,2013-04-14 17:06:00,
2013-04-14 11:21:00,39.1,29.0,29.56,North,351,7.0,-999.0,67,-99.99,,,0.00,582,weatherlink.com 1.10,2013-04-14 17:21:00,
2013-04-14 11:36:00,39.7,29.0,29.56,NNW,342,11.0,-999.0,66,-99.99,,,0.00,701,weatherlink.com 1.10,2013-04-14 17:36:00,
2013-04-14 12:07:00,38.3,29.0,29.57,NNW,342,15.0,-999.0,69,-99.99,,,0.00,450,weatherlink.com 1.10,2013-04-14 18:07:00,
2013-04-14 12:22:00,36.8,29.0,29.57,North,5,14.0,-999.0,73,-99.99,,,0.00,663,weatherlink.com 1.10,2013-04-14 18:22:00,
2013-04-14 12:37:00,38.5,29.0,29.58,NNW,341,11.0,-999.0,70,-99.99,,,0.00,877,weatherlink.com 1.10,2013-04-14 18:37:00,
2013-04-14 12:52:00,38.7,30.0,29.58,NNE,20,14.0,-999.0,71,-99.99,,,0.00,828,weatherlink.com 1.10,2013-04-14 18:52:00,
2013-04-14 13:07:00,37.1,29.0,29.58,NNW,346,10.0,-999.0,73,-99.99,,,0.00,425,weatherlink.com 1.10,2013-04-14 19:07:00,
2013-04-14 13:22:00,38.0,29.0,29.58,North,355,5.0,-999.0,70,-99.99,,,0.00,717,weatherlink.com 1.10,2013-04-14 19:22:00,
2013-04-14 13:37:00,37.7,28.0,29.59,NNW,346,9.0,-999.0,68,-99.99,,,0.00,374,weatherlink.com 1.10,2013-04-14 19:37:00,
2013-04-14 13:52:00,36.2,26.0,29.59,NW,308,11.0,-999.0,66,-99.99,,,0.00,487,weatherlink.com 1.10,2013-04-14 19:52:00,
2013-04-14 14:07:00,36.0,25.0,29.59,NNW,329,11.0,-999.0,65,-99.99,,,0.00,323,weatherlink.com 1.10,2013-04-14 20:07:00,
2013-04-14 14:22:00,35.9,26.0,29.59,NNW,341,10.0,-999.0,67,-99.99,,,0.00,478,weatherlink.com 1.10,2013-04-14 20:22:00,
2013-04-14 14:37:00,35.9,25.0,29.60,North,360,22.0,-999.0,65,-99.99,,,0.00,425,weatherlink.com 1.10,2013-04-14 20:37:00,
2013-04-14 14:52:00,34.6,25.0,29.61,North,350,11.0,-999.0,69,-99.99,,,0.00,243,weatherlink.com 1.10,2013-04-14 20:52:00,
2013-04-14 15:07:00,34.2,25.0,29.62,North,349,11.0,-999.0,70,-99.99,,,0.00,322,weatherlink.com 1.10,2013-04-14 21:07:00,
2013-04-14 15:22:00,33.9,24.0,29.62,North,351,11.0,-999.0,67,-99.99,,,0.00,257,weatherlink.com 1.10,2013-04-14 21:22:00,
2013-04-14 15:37:00,32.5,23.0,29.64,NNE,15,13.0,-999.0,69,-99.99,,,0.00,158,weatherlink.com 1.10,2013-04-14 21:37:00,
2013-04-14 15:52:00,32.6,23.0,29.64,North,355,12.0,-999.0,68,-99.99,,,0.00,269,weatherlink.com 1.10,2013-04-14 21:52:00,
2013-04-14 16:07:00,32.5,22.0,29.65,North,355,10.0,-999.0,66,-99.99,,,0.00,204,weatherlink.com 1.10,2013-04-14 22:07:00,
2013-04-14 16:22:00,31.9,24.0,29.66,NNW,348,10.0,-999.0,72,-99.99,,,0.00,207,weatherlink.com 1.10,2013-04-14 22:22:00,
2013-04-14 16:37:00,31.6,22.0,29.67,NW,318,11.0,-999.0,69,-99.99,,,0.00,192,weatherlink.com 1.10,2013-04-14 22:37:00,
2013-04-14 16:52:00,31.5,22.0,29.68,NNW,330,12.0,-999.0,69,-99.99,,,0.00,207,weatherlink.com 1.10,2013-04-14 22:52:00,
2013-04-14 17:07:00,31.7,22.0,29.69,NNW,346,9.0,-999.0,68,-99.99,,,0.00,369,weatherlink.com 1.10,2013-04-14 23:07:00,
2013-04-14 17:22:00,32.0,24.0,29.70,North,355,15.0,-999.0,71,-99.99,,,0.00,355,weatherlink.com 1.10,2013-04-14 23:22:00,
2013-04-14 17:37:00,30.7,22.0,29.71,North,350,9.0,-999.0,71,-99.99,,,0.00,113,weatherlink.com 1.10,2013-04-14 23:37:00,
2013-04-14 17:52:00,30.4,23.0,29.72,NNW,337,11.0,-999.0,74,-99.99,,,0.00,123,weatherlink.com 1.10,2013-04-14 23:52:00,
2013-04-14 18:07:00,30.0,22.0,29.74,North,5,10.0,-999.0,72,-99.99,,,0.00,104,weatherlink.com 1.10,2013-04-15 00:07:00,
2013-04-14 18:22:00,29.9,21.0,29.74,NNW,341,13.0,-999.0,70,-99.99,,,0.00,88,weatherlink.com 1.10,2013-04-15 00:22:00,
2013-04-14 18:37:00,29.5,19.0,29.75,NW,316,11.0,-999.0,66,-99.99,,,0.00,44,weatherlink.com 1.10,2013-04-15 00:37:00,
2013-04-14 18:52:00,28.9,20.0,29.77,NNW,340,7.0,-999.0,68,-99.99,,,0.00,30,weatherlink.com 1.10,2013-04-15 00:52:00,
2013-04-14 19:08:00,28.4,20.0,29.77,NNW,333,6.0,-999.0,70,-99.99,,,0.00,18,weatherlink.com 1.10,2013-04-15 01:08:00,
2013-04-14 19:23:00,28.1,19.0,29.79,NNW,340,5.0,-999.0,69,-99.99,,,0.00,7,weatherlink.com 1.10,2013-04-15 01:23:00,
2013-04-14 19:38:00,27.8,18.0,29.80,NNW,340,5.0,-999.0,67,-99.99,,,0.00,0,weatherlink.com 1.10,2013-04-15 01:38:00,
2013-04-14 19:53:00,27.8,17.0,29.81,NNW,331,8.0,-999.0,63,-99.99,,,0.00,0,weatherlink.com 1.10,2013-04-15 01:53:00,
2013-04-14 20:08:00,27.7,17.0,29.82,NNW,338,3.0,-999.0,65,-99.99,,,0.00,0,weatherlink.com 1.10,2013-04-15 02:08:00,
2013-04-14 20:23:00,27.2,17.0,29.83,NNW,327,9.0,-999.0,65,-99.99,,,0.00,0,weatherlink.com 1.10,2013-04-15 02:23:00,
2013-04-14 20:38:00,26.9,17.0,29.84,NNW,347,8.0,-999.0,66,-99.99,,,0.00,0,weatherlink.com 1.10,2013-04-15 02:38:00,
2013-04-14 20:53:00,26.1,19.0,29.85,NW,319,5.0,-999.0,73,-99.99,,,0.00,0,weatherlink.com 1.10,2013-04-15 02:53:00,
2013-04-14 21:08:00,25.8,18.0,29.86,NNW,346,6.0,-999.0,73,-99.99,,,0.00,0,weatherlink.com 1.10,2013-04-15 03:08:00,
2013-04-14 21:23:00,24.8,19.0,29.87,NNW,342,10.0,-999.0,77,-99.99,,,0.00,0,weatherlink.com 1.10,2013-04-15 03:23:00,
2013-04-14 21:38:00,24.5,19.0,29.88,NNW,331,6.0,-999.0,78,-99.99,,,0.00,0,weatherlink.com 1.10,2013-04-15 03:38:00,
2013-04-14 21:53:00,24.5,19.0,29.89,NNE,24,10.0,-999.0,79,-99.99,,,0.00,0,weatherlink.com 1.10,2013-04-15 03:53:00,
2013-04-14 22:08:00,24.5,19.0,29.90,NNW,346,8.0,-999.0,79,-99.99,,,0.00,0,weatherlink.com 1.10,2013-04-15 04:08:00,
2013-04-14 22:23:00,24.4,18.0,29.91,NNW,340,12.0,-999.0,75,-99.99,,,0.00,0,weatherlink.com 1.10,2013-04-15 04:23:00,
2013-04-14 22:38:00,23.6,18.0,29.91,NNW,347,10.0,-999.0,78,-99.99,,,0.00,0,weatherlink.com 1.10,2013-04-15 04:38:00,
2013-04-14 22:53:00,23.3,18.0,29.92,NNW,346,11.0,-999.0,79,-99.99,,,0.00,0,weatherlink.com 1.10,2013-04-15 04:53:00,
2013-04-14 23:08:00,23.2,18.0,29.94,NNW,327,6.0,-999.0,80,-99.99,,,0.00,0,weatherlink.com 1.10,2013-04-15 05:08:00,
2013-04-14 23:23:00,22.9,18.0,29.93,NNW,344,4.0,-999.0,81,-99.99,,,0.00,0,weatherlink.com 1.10,2013-04-15 05:23:00,
2013-04-14 23:38:00,23.3,18.0,29.94,NNW,337,6.0,-999.0,80,-99.99,,,0.00,0,weatherlink.com 1.10,2013-04-15 05:38:00,
2013-04-14 23:53:00,23.7,18.0,29.94,NNW,336,4.0,-999.0,77,-99.99,,,0.00,0,weatherlink.com 1.10,2013-04-15 05:53:00,